createdAt,value
2018-01-24T00:02:55.328Z,101358
2018-01-24T00:07:58.421Z,101369
2018-01-24T00:13:02.860Z,101370
2018-01-24T00:18:05.966Z,101363
2018-01-24T00:23:09.829Z,101362
2018-01-24T00:28:12.926Z,101367
2018-01-24T00:33:16.791Z,101364
2018-01-24T00:38:20.716Z,101374
2018-01-24T00:43:25.335Z,101382
2018-01-24T00:48:29.204Z,101383
2018-01-24T00:53:32.701Z,101379
2018-01-24T00:58:36.193Z,101374
2018-01-24T01:03:39.298Z,101374
2018-01-24T01:08:43.177Z,101359
2018-01-24T01:13:46.321Z,101364
2018-01-24T01:18:49.427Z,101361
2018-01-24T01:23:52.531Z,101361
2018-01-24T01:28:56.016Z,101365
2018-01-24T01:34:00.467Z,101365
2018-01-24T01:39:03.621Z,101364
2018-01-24T01:44:07.109Z,101354
2018-01-24T01:49:10.238Z,101344
2018-01-24T01:54:13.339Z,101333
2018-01-24T01:59:16.433Z,101325
2018-01-24T02:04:20.294Z,101314
2018-01-24T02:09:24.537Z,101325
2018-01-24T02:14:28.025Z,101328
2018-01-24T02:19:32.266Z,101319
2018-01-24T02:24:35.358Z,101316
2018-01-24T02:29:39.229Z,101310
2018-01-24T02:34:43.903Z,101314
2018-01-24T02:39:47.371Z,101306
2018-01-24T02:44:50.472Z,101304
2018-01-24T02:49:55.072Z,101308
2018-01-24T02:54:58.930Z,101302
2018-01-24T03:00:03.373Z,101297
2018-01-24T03:05:07.812Z,101293
2018-01-24T03:10:11.309Z,101292
2018-01-24T03:15:15.181Z,101287
2018-01-24T03:20:19.056Z,101285
2018-01-24T03:25:22.148Z,101288
2018-01-24T03:30:27.535Z,101291
2018-01-24T03:35:31.400Z,101287
2018-01-24T03:40:35.846Z,101278
2018-01-24T03:45:39.553Z,101281
2018-01-24T03:50:43.022Z,101284
2018-01-24T03:55:46.122Z,101278
2018-01-24T04:00:52.226Z,101279
2018-01-24T04:05:55.325Z,101271
2018-01-24T04:11:00.214Z,101283
2018-01-24T04:16:03.705Z,101274
2018-01-24T04:21:07.944Z,101275
2018-01-24T04:26:11.036Z,101267
2018-01-24T04:31:14.900Z,101268
2018-01-24T04:36:18.766Z,101280
2018-01-24T04:41:23.387Z,101269
2018-01-24T04:46:27.252Z,101272
2018-01-24T04:51:31.120Z,101275
2018-01-24T04:56:34.603Z,101275
2018-01-24T05:01:38.099Z,101270
2018-01-24T05:06:41.584Z,101278
2018-01-24T05:11:44.687Z,101278
2018-01-24T05:16:48.190Z,101273
2018-01-24T05:21:52.428Z,101265
2018-01-24T05:26:56.287Z,101269
2018-01-24T05:32:00.140Z,101267
2018-01-24T05:37:03.242Z,101274
2018-01-24T05:42:07.486Z,101268
2018-01-24T05:47:11.336Z,101269
2018-01-24T05:52:14.832Z,101271
2018-01-24T05:57:17.948Z,101274
2018-01-24T06:02:21.051Z,101269
2018-01-24T06:07:24.198Z,101259
2018-01-24T06:12:27.697Z,101254
2018-01-24T06:17:31.551Z,101249
2018-01-24T06:22:35.416Z,101252
2018-01-24T06:27:38.487Z,101251
2018-01-24T06:32:41.594Z,101253
2018-01-24T06:37:46.048Z,101243
2018-01-24T06:42:50.276Z,101243
2018-01-24T06:47:53.375Z,101242
2018-01-24T06:52:56.484Z,101239
2018-01-24T06:57:59.575Z,101233
2018-01-24T07:03:03.080Z,101229
2018-01-24T07:08:07.688Z,101232
2018-01-24T07:13:28.772Z,101234
2018-01-24T07:18:32.999Z,101247
2018-01-24T07:23:36.543Z,101237
2018-01-24T07:28:39.696Z,101244
2018-01-24T07:33:42.784Z,101247
2018-01-24T07:38:45.885Z,101250
2018-01-24T07:43:50.124Z,101249
2018-01-24T07:48:53.239Z,101249
2018-01-24T07:53:56.332Z,101243
2018-01-24T07:58:59.719Z,101237
2018-01-24T08:04:03.214Z,101228
2018-01-24T08:09:06.353Z,101222
2018-01-24T08:14:10.216Z,101220
2018-01-24T08:19:13.300Z,101210
2018-01-24T08:24:16.436Z,101201
2018-01-24T08:29:20.276Z,101204
2018-01-24T08:34:24.129Z,101205
2018-01-24T08:39:27.239Z,101199
2018-01-24T08:44:31.680Z,101196
2018-01-24T08:49:34.800Z,101190
2018-01-24T08:54:38.318Z,101182
2018-01-24T09:00:05.794Z,101186
2018-01-24T09:05:27.659Z,101176
2018-01-24T09:10:55.322Z,101175
2018-01-24T09:16:17.453Z,101166
2018-01-24T09:21:45.296Z,101160
2018-01-24T09:26:49.155Z,101140
2018-01-24T09:31:53.368Z,101139
2018-01-24T09:36:57.252Z,101155
2018-01-24T09:42:00.376Z,101149
2018-01-24T09:47:03.472Z,101163
2018-01-24T09:52:06.559Z,101160
2018-01-24T09:57:11.159Z,101165
2018-01-24T10:02:15.968Z,101157
2018-01-24T10:07:20.458Z,101159
2018-01-24T10:12:24.319Z,101150
2018-01-24T10:17:28.176Z,101156
2018-01-24T10:22:31.290Z,101151
2018-01-24T10:27:35.176Z,101143
2018-01-24T10:32:38.656Z,101146
2018-01-24T10:37:42.498Z,101146
2018-01-24T10:42:46.723Z,101127
2018-01-24T10:47:50.962Z,101117
2018-01-24T10:52:54.812Z,101127
2018-01-24T10:57:59.452Z,101122
2018-01-24T11:03:03.328Z,101115
2018-01-24T11:08:06.431Z,101105
2018-01-24T11:13:09.558Z,101093
2018-01-24T11:18:12.771Z,101089
2018-01-24T11:23:16.749Z,101067
2018-01-24T11:28:20.636Z,101058
2018-01-24T11:33:23.696Z,101054
2018-01-24T11:38:27.008Z,101060
2018-01-24T11:43:30.530Z,101053
2018-01-24T11:48:33.744Z,101045
2018-01-24T11:53:38.372Z,101027
2018-01-24T11:58:42.590Z,101023
2018-01-24T12:03:45.754Z,101007
2018-01-24T12:08:49.627Z,100987
2018-01-24T12:13:53.867Z,100981
2018-01-24T12:18:56.978Z,100971
2018-01-24T12:24:00.116Z,100962
2018-01-24T12:29:03.233Z,100955
2018-01-24T12:34:06.703Z,100957
2018-01-24T12:39:10.587Z,100944
2018-01-24T12:44:14.441Z,100934
2018-01-24T12:49:19.092Z,100907
2018-01-24T12:54:22.943Z,100904
2018-01-24T12:59:26.981Z,100894
2018-01-24T13:04:30.821Z,100886
2018-01-24T13:09:33.903Z,100865
2018-01-24T13:14:36.990Z,100852
2018-01-24T13:19:40.851Z,100848
2018-01-24T13:24:43.953Z,100840
2018-01-24T13:29:47.047Z,100838
2018-01-24T13:34:51.298Z,100829
2018-01-24T13:39:55.750Z,100822
2018-01-24T13:44:59.478Z,100824
2018-01-24T13:50:03.714Z,100824
2018-01-24T13:55:07.583Z,100808
2018-01-24T14:00:11.075Z,100805
2018-01-24T14:05:14.683Z,100794
2018-01-24T14:10:19.135Z,100796
2018-01-24T14:15:22.898Z,100790
2018-01-24T14:20:27.436Z,100803
2018-01-24T14:25:31.358Z,100807
2018-01-24T14:30:34.818Z,100800
2018-01-24T14:35:39.327Z,100798
2018-01-24T14:40:42.483Z,100792
2018-01-24T14:45:46.877Z,100779
2018-01-24T14:50:50.368Z,100785
2018-01-24T14:55:53.476Z,100788
2018-01-24T15:00:56.961Z,100790
2018-01-24T15:06:01.572Z,100776
2018-01-24T15:11:04.691Z,100780
2018-01-24T15:16:07.780Z,100775
2018-01-24T15:21:12.015Z,100755
2018-01-24T15:26:15.508Z,100758
2018-01-24T15:31:19.364Z,100753
2018-01-24T15:36:23.800Z,100741
2018-01-24T15:41:28.239Z,100736
2018-01-24T15:46:32.465Z,100745
2018-01-24T15:51:36.329Z,100737
2018-01-24T15:56:40.770Z,100735
2018-01-24T16:01:44.623Z,100745
2018-01-24T16:06:47.712Z,100752
2018-01-24T16:11:51.572Z,100751
2018-01-24T16:16:55.811Z,100750
2018-01-24T16:22:00.415Z,100742
2018-01-24T16:27:03.883Z,100735
2018-01-24T16:32:07.735Z,100732
2018-01-24T16:37:11.591Z,100733
2018-01-24T16:42:15.814Z,100741
2018-01-24T16:47:19.672Z,100735
2018-01-24T16:52:22.759Z,100744
2018-01-24T16:57:26.617Z,100735
2018-01-24T17:02:31.044Z,100729
2018-01-24T17:07:34.906Z,100728
2018-01-24T17:12:39.527Z,100719
2018-01-24T17:17:43.040Z,100728
2018-01-24T17:22:46.134Z,100735
2018-01-24T17:27:49.734Z,100733
2018-01-24T17:32:53.966Z,100738
2018-01-24T17:37:57.827Z,100741
2018-01-24T17:43:01.686Z,100730
2018-01-24T17:48:06.136Z,100715
2018-01-24T17:53:10.732Z,100715
2018-01-24T17:58:13.828Z,100718
2018-01-24T18:03:18.056Z,100713
2018-01-24T18:08:21.916Z,100714
2018-01-24T18:13:25.395Z,100716
2018-01-24T18:18:29.864Z,100706
2018-01-24T18:23:33.007Z,100703
2018-01-24T18:28:36.044Z,100699
2018-01-24T18:33:40.479Z,100689
2018-01-24T18:38:44.923Z,100693
2018-01-24T18:43:48.028Z,100670
2018-01-24T18:48:52.252Z,100673
2018-01-24T18:53:55.344Z,100675
2018-01-24T18:58:59.800Z,100668
2018-01-24T19:04:04.252Z,100659
2018-01-24T19:09:07.362Z,100647
2018-01-24T19:14:11.814Z,100636
2018-01-24T19:19:16.252Z,100635
2018-01-24T19:24:20.699Z,100625
2018-01-24T19:29:25.162Z,100623
2018-01-24T19:34:29.021Z,100620
2018-01-24T19:39:32.128Z,100621
2018-01-24T19:44:35.619Z,100617
2018-01-24T19:49:40.063Z,100611
2018-01-24T19:54:44.291Z,100602
2018-01-24T19:59:48.529Z,100603
2018-01-24T20:04:52.979Z,100602
2018-01-24T20:09:56.461Z,100605
2018-01-24T20:15:00.379Z,100599
2018-01-24T20:20:04.784Z,100607
2018-01-24T20:25:07.890Z,100611
2018-01-24T20:30:12.497Z,100614
2018-01-24T20:35:16.432Z,100613
2018-01-24T20:40:19.567Z,100604
2018-01-24T20:45:24.619Z,100597
2018-01-24T20:50:27.713Z,100591
2018-01-24T20:55:30.808Z,100598
2018-01-24T21:00:35.257Z,100605
2018-01-24T21:05:38.753Z,100615
2018-01-24T21:10:42.616Z,100616
2018-01-24T21:15:45.711Z,100613
2018-01-24T21:20:48.811Z,100607
2018-01-24T21:25:51.904Z,100599
2018-01-24T21:31:13.441Z,100602
2018-01-24T21:36:34.060Z,100597
2018-01-24T21:41:38.309Z,100584
2018-01-24T21:46:42.770Z,100568
2018-01-24T21:51:47.215Z,100565
2018-01-24T21:56:51.656Z,100579
2018-01-24T22:01:55.151Z,100581
2018-01-24T22:06:59.640Z,100581
2018-01-24T22:12:04.091Z,100568
2018-01-24T22:17:07.900Z,100577
2018-01-24T22:22:12.507Z,100576
2018-01-24T22:27:15.611Z,100582
2018-01-24T22:32:19.097Z,100584
2018-01-24T22:37:22.951Z,100577
2018-01-24T22:42:27.403Z,100577
2018-01-24T22:47:30.509Z,100589
2018-01-24T22:52:34.961Z,100587
2018-01-24T22:57:38.168Z,100591
2018-01-24T23:02:41.284Z,100589
2018-01-24T23:07:45.381Z,100578
2018-01-24T23:12:49.914Z,100581
2018-01-24T23:17:53.825Z,100578
2018-01-24T23:22:58.256Z,100580
2018-01-24T23:28:02.548Z,100578
2018-01-24T23:33:05.671Z,100576
2018-01-24T23:38:09.160Z,100584
2018-01-24T23:43:13.452Z,100578
2018-01-24T23:48:17.904Z,100575
2018-01-24T23:53:21.395Z,100577
2018-01-24T23:58:25.255Z,100574
